0R0

Columbia-Marion County Airport

Columbia, Mississippi, USA
METAR K0R0 201415Z AUTO 00000KT 6SM HZ CLR 28/25 A3003 RMK AO2 PWINO TSNO
Observed Flight Rules
Jul-20 @ 14:15 UTC (12 minutes ago) Visual Flight Rules
Visibility Clouds Conditions
6 miles
  • Clear skies
  • Haze
Temperatures Readings
Current 28°C / 82°F
Dewpoint 25°C / 77°F
Humidity 84%
Altimeter 30.03" Hg
Pressure 1017 hPa
Elevation 81
METAR K0R0 201415Z AUTO 00000KT 6SM HZ CLR 28/25 A3003 RMK AO2 PWINO TSNO
Observed Flight Rules
Jul-20 @ 14:15 UTC
(12 minutes ago)
VFR
Clouds
  • Clear skies
Conditions
  • Haze
Temperature Dewpoint
28°C / 82°F 25°C / 77°F
Humidity Altimeter Pressure
84% 30.03" Hg 1017 hPa